sensor_id;sensor_type;location;lat;lon;timestamp;pressure;altitude;pressure_sealevel;temperature
12007;BMP180;6062;47.294;12.182;2022-08-19T00:01:52;80332.00;;;16.60
12007;BMP180;6062;47.294;12.182;2022-08-19T00:04:29;80334.00;;;16.60
12007;BMP180;6062;47.294;12.182;2022-08-19T00:06:55;80333.00;;;16.60
12007;BMP180;6062;47.294;12.182;2022-08-19T00:09:22;80322.00;;;16.60
12007;BMP180;6062;47.294;12.182;2022-08-19T00:11:49;80321.00;;;16.70
12007;BMP180;6062;47.294;12.182;2022-08-19T00:14:16;80297.00;;;16.70
12007;BMP180;6062;47.294;12.182;2022-08-19T00:16:45;80288.00;;;16.70
12007;BMP180;6062;47.294;12.182;2022-08-19T00:19:11;80279.00;;;16.70
12007;BMP180;6062;47.294;12.182;2022-08-19T00:21:37;80285.00;;;16.70
12007;BMP180;6062;47.294;12.182;2022-08-19T00:24:07;80282.00;;;16.80
12007;BMP180;6062;47.294;12.182;2022-08-19T00:26:33;80299.00;;;16.80
12007;BMP180;6062;47.294;12.182;2022-08-19T00:28:59;80276.00;;;16.90
12007;BMP180;6062;47.294;12.182;2022-08-19T00:31:26;80264.00;;;16.90
12007;BMP180;6062;47.294;12.182;2022-08-19T00:33:54;80247.00;;;16.90
12007;BMP180;6062;47.294;12.182;2022-08-19T00:36:20;80249.00;;;17.00
12007;BMP180;6062;47.294;12.182;2022-08-19T00:38:46;80261.00;;;17.00
12007;BMP180;6062;47.294;12.182;2022-08-19T00:41:18;80279.00;;;17.10
12007;BMP180;6062;47.294;12.182;2022-08-19T00:43:59;80271.00;;;17.10
12007;BMP180;6062;47.294;12.182;2022-08-19T00:46:27;80271.00;;;17.10
12007;BMP180;6062;47.294;12.182;2022-08-19T00:48:54;80279.00;;;17.10
12007;BMP180;6062;47.294;12.182;2022-08-19T00:51:20;80282.00;;;17.10
12007;BMP180;6062;47.294;12.182;2022-08-19T00:53:47;80276.00;;;17.10
12007;BMP180;6062;47.294;12.182;2022-08-19T00:56:13;80278.00;;;17.00
12007;BMP180;6062;47.294;12.182;2022-08-19T00:58:39;80274.00;;;17.00
12007;BMP180;6062;47.294;12.182;2022-08-19T01:01:05;80272.00;;;17.00
12007;BMP180;6062;47.294;12.182;2022-08-19T01:03:33;80278.00;;;17.00
12007;BMP180;6062;47.294;12.182;2022-08-19T01:05:59;80291.00;;;16.90
12007;BMP180;6062;47.294;12.182;2022-08-19T01:08:25;80284.00;;;16.90
12007;BMP180;6062;47.294;12.182;2022-08-19T01:10:58;80293.00;;;16.80
12007;BMP180;6062;47.294;12.182;2022-08-19T01:13:29;80299.00;;;16.70
12007;BMP180;6062;47.294;12.182;2022-08-19T01:16:01;80306.00;;;16.70
12007;BMP180;6062;47.294;12.182;2022-08-19T01:18:30;80309.00;;;16.70
12007;BMP180;6062;47.294;12.182;2022-08-19T01:21:02;80306.00;;;16.60
12007;BMP180;6062;47.294;12.182;2022-08-19T01:23:30;80307.00;;;16.60
12007;BMP180;6062;47.294;12.182;2022-08-19T01:26:22;80311.00;;;16.60
12007;BMP180;6062;47.294;12.182;2022-08-19T01:28:53;80307.00;;;16.60
12007;BMP180;6062;47.294;12.182;2022-08-19T01:31:25;80321.00;;;16.70
12007;BMP180;6062;47.294;12.182;2022-08-19T01:33:53;80326.00;;;16.70
12007;BMP180;6062;47.294;12.182;2022-08-19T01:36:26;80319.00;;;16.70
12007;BMP180;6062;47.294;12.182;2022-08-19T01:38:52;80319.00;;;16.80
12007;BMP180;6062;47.294;12.182;2022-08-19T01:41:18;80312.00;;;16.70
12007;BMP180;6062;47.294;12.182;2022-08-19T01:43:45;80316.00;;;16.80
12007;BMP180;6062;47.294;12.182;2022-08-19T01:46:11;80316.00;;;16.80
12007;BMP180;6062;47.294;12.182;2022-08-19T01:48:42;80310.00;;;16.80
12007;BMP180;6062;47.294;12.182;2022-08-19T01:51:10;80315.00;;;16.80
12007;BMP180;6062;47.294;12.182;2022-08-19T01:53:37;80322.00;;;16.90
12007;BMP180;6062;47.294;12.182;2022-08-19T01:56:05;80322.00;;;16.90
12007;BMP180;6062;47.294;12.182;2022-08-19T01:58:41;80321.00;;;16.90
12007;BMP180;6062;47.294;12.182;2022-08-19T02:01:11;80330.00;;;16.90
12007;BMP180;6062;47.294;12.182;2022-08-19T02:03:38;80321.00;;;16.90
12007;BMP180;6062;47.294;12.182;2022-08-19T02:06:04;80319.00;;;16.90
12007;BMP180;6062;47.294;12.182;2022-08-19T02:08:34;80319.00;;;16.90
12007;BMP180;6062;47.294;12.182;2022-08-19T02:11:00;80307.00;;;16.90
12007;BMP180;6062;47.294;12.182;2022-08-19T02:13:27;80312.00;;;16.90
12007;BMP180;6062;47.294;12.182;2022-08-19T02:15:52;80318.00;;;16.90
12007;BMP180;6062;47.294;12.182;2022-08-19T02:18:18;80321.00;;;16.90
12007;BMP180;6062;47.294;12.182;2022-08-19T02:20:44;80314.00;;;16.90
12007;BMP180;6062;47.294;12.182;2022-08-19T02:23:12;80304.00;;;16.80
12007;BMP180;6062;47.294;12.182;2022-08-19T02:25:38;80315.00;;;16.80
12007;BMP180;6062;47.294;12.182;2022-08-19T02:28:05;80323.00;;;16.60
12007;BMP180;6062;47.294;12.182;2022-08-19T02:30:31;80310.00;;;16.40
12007;BMP180;6062;47.294;12.182;2022-08-19T02:32:57;80309.00;;;16.20
12007;BMP180;6062;47.294;12.182;2022-08-19T02:35:23;80320.00;;;16.10
12007;BMP180;6062;47.294;12.182;2022-08-19T02:37:49;80320.00;;;16.00
12007;BMP180;6062;47.294;12.182;2022-08-19T02:40:35;80310.00;;;16.00
12007;BMP180;6062;47.294;12.182;2022-08-19T02:43:06;80305.00;;;16.00
12007;BMP180;6062;47.294;12.182;2022-08-19T02:45:38;80297.00;;;16.00
12007;BMP180;6062;47.294;12.182;2022-08-19T02:48:07;80304.00;;;16.00
12007;BMP180;6062;47.294;12.182;2022-08-19T02:50:38;80307.00;;;16.10
12007;BMP180;6062;47.294;12.182;2022-08-19T02:53:05;80304.00;;;16.10
12007;BMP180;6062;47.294;12.182;2022-08-19T02:55:32;80307.00;;;16.10
12007;BMP180;6062;47.294;12.182;2022-08-19T02:57:59;80318.00;;;16.20
12007;BMP180;6062;47.294;12.182;2022-08-19T03:00:26;80306.00;;;16.20
12007;BMP180;6062;47.294;12.182;2022-08-19T03:02:53;80322.00;;;16.20
12007;BMP180;6062;47.294;12.182;2022-08-19T03:05:18;80318.00;;;16.20
12007;BMP180;6062;47.294;12.182;2022-08-19T03:07:44;80306.00;;;16.30
12007;BMP180;6062;47.294;12.182;2022-08-19T03:10:12;80311.00;;;16.30
12007;BMP180;6062;47.294;12.182;2022-08-19T03:12:38;80303.00;;;16.30
12007;BMP180;6062;47.294;12.182;2022-08-19T03:15:07;80306.00;;;16.30
12007;BMP180;6062;47.294;12.182;2022-08-19T03:17:34;80314.00;;;16.30
12007;BMP180;6062;47.294;12.182;2022-08-19T03:20:00;80316.00;;;16.30
12007;BMP180;6062;47.294;12.182;2022-08-19T03:22:26;80322.00;;;16.30
12007;BMP180;6062;47.294;12.182;2022-08-19T03:24:52;80324.00;;;16.30
12007;BMP180;6062;47.294;12.182;2022-08-19T03:27:19;80320.00;;;16.30
12007;BMP180;6062;47.294;12.182;2022-08-19T03:29:44;80312.00;;;16.30
12007;BMP180;6062;47.294;12.182;2022-08-19T03:32:11;80314.00;;;16.30
12007;BMP180;6062;47.294;12.182;2022-08-19T03:34:38;80314.00;;;16.40
12007;BMP180;6062;47.294;12.182;2022-08-19T03:37:11;80317.00;;;16.40
12007;BMP180;6062;47.294;12.182;2022-08-19T03:39:40;80303.00;;;16.40
12007;BMP180;6062;47.294;12.182;2022-08-19T03:42:08;80298.00;;;16.40
12007;BMP180;6062;47.294;12.182;2022-08-19T03:44:34;80294.00;;;16.40
12007;BMP180;6062;47.294;12.182;2022-08-19T03:47:01;80296.00;;;16.40
12007;BMP180;6062;47.294;12.182;2022-08-19T03:49:30;80294.00;;;16.40
12007;BMP180;6062;47.294;12.182;2022-08-19T03:51:58;80300.00;;;16.30
12007;BMP180;6062;47.294;12.182;2022-08-19T03:54:27;80292.00;;;16.30
12007;BMP180;6062;47.294;12.182;2022-08-19T03:56:56;80290.00;;;16.30
12007;BMP180;6062;47.294;12.182;2022-08-19T03:59:30;80298.00;;;16.30
12007;BMP180;6062;47.294;12.182;2022-08-19T04:02:00;80311.00;;;16.30
12007;BMP180;6062;47.294;12.182;2022-08-19T04:04:26;80309.00;;;16.30
12007;BMP180;6062;47.294;12.182;2022-08-19T04:06:52;80310.00;;;16.20
12007;BMP180;6062;47.294;12.182;2022-08-19T04:09:19;80309.00;;;16.20
12007;BMP180;6062;47.294;12.182;2022-08-19T04:11:50;80317.00;;;16.20
12007;BMP180;6062;47.294;12.182;2022-08-19T04:14:20;80325.00;;;16.20
12007;BMP180;6062;47.294;12.182;2022-08-19T04:16:47;80324.00;;;16.30
12007;BMP180;6062;47.294;12.182;2022-08-19T04:19:15;80318.00;;;16.30
12007;BMP180;6062;47.294;12.182;2022-08-19T04:21:44;80322.00;;;16.30
12007;BMP180;6062;47.294;12.182;2022-08-19T04:24:11;80326.00;;;16.30
12007;BMP180;6062;47.294;12.182;2022-08-19T04:26:37;80323.00;;;16.30
12007;BMP180;6062;47.294;12.182;2022-08-19T04:29:19;80323.00;;;16.30
12007;BMP180;6062;47.294;12.182;2022-08-19T04:31:49;80325.00;;;16.30
12007;BMP180;6062;47.294;12.182;2022-08-19T04:34:18;80328.00;;;16.30
12007;BMP180;6062;47.294;12.182;2022-08-19T04:36:48;80324.00;;;16.30
12007;BMP180;6062;47.294;12.182;2022-08-19T04:39:21;80327.00;;;16.30
12007;BMP180;6062;47.294;12.182;2022-08-19T04:41:47;80325.00;;;16.30
12007;BMP180;6062;47.294;12.182;2022-08-19T04:44:35;80325.00;;;16.40
12007;BMP180;6062;47.294;12.182;2022-08-19T04:47:02;80328.00;;;16.40
12007;BMP180;6062;47.294;12.182;2022-08-19T04:49:30;80328.00;;;16.30
12007;BMP180;6062;47.294;12.182;2022-08-19T04:51:56;80342.00;;;16.30
12007;BMP180;6062;47.294;12.182;2022-08-19T04:54:24;80339.00;;;16.30
12007;BMP180;6062;47.294;12.182;2022-08-19T04:56:52;80330.00;;;16.40
12007;BMP180;6062;47.294;12.182;2022-08-19T04:59:20;80331.00;;;16.40
12007;BMP180;6062;47.294;12.182;2022-08-19T05:01:47;80328.00;;;16.40
12007;BMP180;6062;47.294;12.182;2022-08-19T05:04:19;80329.00;;;16.40
12007;BMP180;6062;47.294;12.182;2022-08-19T05:06:48;80326.00;;;16.40
12007;BMP180;6062;47.294;12.182;2022-08-19T05:09:15;80315.00;;;16.40
12007;BMP180;6062;47.294;12.182;2022-08-19T05:11:41;80306.00;;;16.40
12007;BMP180;6062;47.294;12.182;2022-08-19T05:14:08;80309.00;;;16.50
12007;BMP180;6062;47.294;12.182;2022-08-19T05:16:35;80308.00;;;16.40
12007;BMP180;6062;47.294;12.182;2022-08-19T05:19:01;80306.00;;;16.40
12007;BMP180;6062;47.294;12.182;2022-08-19T05:21:46;80295.00;;;16.20
12007;BMP180;6062;47.294;12.182;2022-08-19T05:24:30;80290.00;;;16.10
12007;BMP180;6062;47.294;12.182;2022-08-19T05:27:00;80298.00;;;16.10
12007;BMP180;6062;47.294;12.182;2022-08-19T05:29:29;80306.00;;;16.00
12007;BMP180;6062;47.294;12.182;2022-08-19T05:31:57;80291.00;;;15.90
12007;BMP180;6062;47.294;12.182;2022-08-19T05:34:24;80288.00;;;15.90
12007;BMP180;6062;47.294;12.182;2022-08-19T05:36:57;80279.00;;;15.80
12007;BMP180;6062;47.294;12.182;2022-08-19T05:39:31;80266.00;;;15.80
12007;BMP180;6062;47.294;12.182;2022-08-19T05:42:07;80259.00;;;15.80
12007;BMP180;6062;47.294;12.182;2022-08-19T05:44:39;80267.00;;;15.80
12007;BMP180;6062;47.294;12.182;2022-08-19T05:47:06;80262.00;;;15.70
12007;BMP180;6062;47.294;12.182;2022-08-19T05:49:35;80249.00;;;15.70
12007;BMP180;6062;47.294;12.182;2022-08-19T05:52:05;80249.00;;;15.60
12007;BMP180;6062;47.294;12.182;2022-08-19T05:54:32;80247.00;;;15.60
12007;BMP180;6062;47.294;12.182;2022-08-19T05:56:58;80238.00;;;15.60
12007;BMP180;6062;47.294;12.182;2022-08-19T05:59:25;80230.00;;;15.60
12007;BMP180;6062;47.294;12.182;2022-08-19T06:01:53;80220.00;;;15.60
12007;BMP180;6062;47.294;12.182;2022-08-19T06:04:23;80221.00;;;15.70
12007;BMP180;6062;47.294;12.182;2022-08-19T06:06:52;80238.00;;;15.70
12007;BMP180;6062;47.294;12.182;2022-08-19T06:09:20;80226.00;;;15.70
12007;BMP180;6062;47.294;12.182;2022-08-19T06:11:54;80239.00;;;15.70
12007;BMP180;6062;47.294;12.182;2022-08-19T06:14:25;80245.00;;;15.60
12007;BMP180;6062;47.294;12.182;2022-08-19T06:16:51;80229.00;;;15.60
12007;BMP180;6062;47.294;12.182;2022-08-19T06:19:21;80236.00;;;15.60
12007;BMP180;6062;47.294;12.182;2022-08-19T06:21:51;80251.00;;;15.60
12007;BMP180;6062;47.294;12.182;2022-08-19T06:24:24;80259.00;;;15.70
12007;BMP180;6062;47.294;12.182;2022-08-19T06:26:53;80252.00;;;15.60
12007;BMP180;6062;47.294;12.182;2022-08-19T06:29:23;80255.00;;;15.60
12007;BMP180;6062;47.294;12.182;2022-08-19T06:31:54;80252.00;;;15.60
12007;BMP180;6062;47.294;12.182;2022-08-19T06:34:22;80247.00;;;15.60
12007;BMP180;6062;47.294;12.182;2022-08-19T06:36:50;80246.00;;;15.60
12007;BMP180;6062;47.294;12.182;2022-08-19T06:39:24;80242.00;;;15.70
12007;BMP180;6062;47.294;12.182;2022-08-19T06:41:54;80247.00;;;15.90
12007;BMP180;6062;47.294;12.182;2022-08-19T06:44:23;80252.00;;;16.00
12007;BMP180;6062;47.294;12.182;2022-08-19T06:46:51;80272.00;;;16.20
12007;BMP180;6062;47.294;12.182;2022-08-19T06:49:17;80277.00;;;16.40
12007;BMP180;6062;47.294;12.182;2022-08-19T06:51:47;80284.00;;;16.50
12007;BMP180;6062;47.294;12.182;2022-08-19T06:54:15;80281.00;;;16.70
12007;BMP180;6062;47.294;12.182;2022-08-19T06:56:42;80286.00;;;16.90
12007;BMP180;6062;47.294;12.182;2022-08-19T06:59:19;80283.00;;;17.10
12007;BMP180;6062;47.294;12.182;2022-08-19T07:01:52;80281.00;;;17.30
12007;BMP180;6062;47.294;12.182;2022-08-19T07:04:25;80275.00;;;17.50
12007;BMP180;6062;47.294;12.182;2022-08-19T07:07:16;80284.00;;;17.60
12007;BMP180;6062;47.294;12.182;2022-08-19T07:09:44;80300.00;;;17.70
12007;BMP180;6062;47.294;12.182;2022-08-19T07:12:12;80306.00;;;17.70
12007;BMP180;6062;47.294;12.182;2022-08-19T07:14:42;80314.00;;;17.50
12007;BMP180;6062;47.294;12.182;2022-08-19T07:17:11;80313.00;;;17.30
12007;BMP180;6062;47.294;12.182;2022-08-19T07:19:39;80312.00;;;17.10
12007;BMP180;6062;47.294;12.182;2022-08-19T07:22:07;80298.00;;;17.00
12007;BMP180;6062;47.294;12.182;2022-08-19T07:34:55;80255.00;;;19.20
12007;BMP180;6062;47.294;12.182;2022-08-19T07:37:21;80255.00;;;20.00
12007;BMP180;6062;47.294;12.182;2022-08-19T07:39:47;80253.00;;;20.80
12007;BMP180;6062;47.294;12.182;2022-08-19T07:42:13;80255.00;;;21.30
12007;BMP180;6062;47.294;12.182;2022-08-19T07:44:40;80252.00;;;21.30
12007;BMP180;6062;47.294;12.182;2022-08-19T07:47:06;80253.00;;;21.00
12007;BMP180;6062;47.294;12.182;2022-08-19T07:49:32;80255.00;;;20.60
12007;BMP180;6062;47.294;12.182;2022-08-19T07:52:05;80264.00;;;20.10
12007;BMP180;6062;47.294;12.182;2022-08-19T07:54:35;80279.00;;;19.70
12007;BMP180;6062;47.294;12.182;2022-08-19T07:57:04;80279.00;;;19.30
12007;BMP180;6062;47.294;12.182;2022-08-19T07:59:30;80283.00;;;19.10
12007;BMP180;6062;47.294;12.182;2022-08-19T08:01:57;80292.00;;;18.80
12007;BMP180;6062;47.294;12.182;2022-08-19T08:04:26;80305.00;;;18.60
12007;BMP180;6062;47.294;12.182;2022-08-19T08:07:11;80296.00;;;18.30
12007;BMP180;6062;47.294;12.182;2022-08-19T08:09:56;80287.00;;;18.00
12007;BMP180;6062;47.294;12.182;2022-08-19T08:12:31;80287.00;;;18.00
12007;BMP180;6062;47.294;12.182;2022-08-19T08:15:04;80302.00;;;18.00
12007;BMP180;6062;47.294;12.182;2022-08-19T08:17:34;80303.00;;;18.10
12007;BMP180;6062;47.294;12.182;2022-08-19T08:20:00;80290.00;;;18.20
12007;BMP180;6062;47.294;12.182;2022-08-19T08:22:25;80291.00;;;18.30
12007;BMP180;6062;47.294;12.182;2022-08-19T08:25:18;80290.00;;;18.20
12007;BMP180;6062;47.294;12.182;2022-08-19T08:27:45;80299.00;;;18.10
12007;BMP180;6062;47.294;12.182;2022-08-19T08:30:17;80299.00;;;17.90
12007;BMP180;6062;47.294;12.182;2022-08-19T08:32:43;80302.00;;;17.90
12007;BMP180;6062;47.294;12.182;2022-08-19T08:35:14;80308.00;;;18.30
12007;BMP180;6062;47.294;12.182;2022-08-19T08:37:40;80313.00;;;19.10
12007;BMP180;6062;47.294;12.182;2022-08-19T08:40:45;80316.00;;;20.10
12007;BMP180;6062;47.294;12.182;2022-08-19T08:43:36;80303.00;;;21.10
12007;BMP180;6062;47.294;12.182;2022-08-19T08:46:15;80305.00;;;22.00
12007;BMP180;6062;47.294;12.182;2022-08-19T08:48:53;80304.00;;;22.50
12007;BMP180;6062;47.294;12.182;2022-08-19T08:51:38;80309.00;;;22.90
12007;BMP180;6062;47.294;12.182;2022-08-19T08:54:14;80311.00;;;23.40
12007;BMP180;6062;47.294;12.182;2022-08-19T08:56:44;80307.00;;;24.10
12007;BMP180;6062;47.294;12.182;2022-08-19T08:59:30;80312.00;;;24.90
12007;BMP180;6062;47.294;12.182;2022-08-19T09:01:59;80326.00;;;25.50
12007;BMP180;6062;47.294;12.182;2022-08-19T09:04:26;80331.00;;;25.90
12007;BMP180;6062;47.294;12.182;2022-08-19T09:10:39;80328.00;;;25.70
12007;BMP180;6062;47.294;12.182;2022-08-19T09:18:51;80321.00;;;25.50
12007;BMP180;6062;47.294;12.182;2022-08-19T09:21:22;80317.00;;;25.00
12007;BMP180;6062;47.294;12.182;2022-08-19T09:23:48;80327.00;;;24.60
12007;BMP180;6062;47.294;12.182;2022-08-19T09:26:18;80329.00;;;24.40
12007;BMP180;6062;47.294;12.182;2022-08-19T09:28:47;80322.00;;;24.00
12007;BMP180;6062;47.294;12.182;2022-08-19T09:31:20;80327.00;;;23.60
12007;BMP180;6062;47.294;12.182;2022-08-19T09:33:47;80325.00;;;23.10
12007;BMP180;6062;47.294;12.182;2022-08-19T09:36:16;80330.00;;;22.60
12007;BMP180;6062;47.294;12.182;2022-08-19T09:38:44;80326.00;;;22.20
12007;BMP180;6062;47.294;12.182;2022-08-19T09:41:20;80328.00;;;21.80
12007;BMP180;6062;47.294;12.182;2022-08-19T09:43:49;80319.00;;;21.50
12007;BMP180;6062;47.294;12.182;2022-08-19T09:46:19;80312.00;;;21.40
12007;BMP180;6062;47.294;12.182;2022-08-19T09:48:47;80314.00;;;21.50
12007;BMP180;6062;47.294;12.182;2022-08-19T09:51:23;80310.00;;;21.70
12007;BMP180;6062;47.294;12.182;2022-08-19T09:53:51;80313.00;;;21.60
12007;BMP180;6062;47.294;12.182;2022-08-19T09:56:20;80321.00;;;21.40
12007;BMP180;6062;47.294;12.182;2022-08-19T09:58:48;80317.00;;;21.30
12007;BMP180;6062;47.294;12.182;2022-08-19T10:01:23;80318.00;;;21.40
12007;BMP180;6062;47.294;12.182;2022-08-19T10:03:54;80326.00;;;21.60
12007;BMP180;6062;47.294;12.182;2022-08-19T10:06:24;80331.00;;;21.70
12007;BMP180;6062;47.294;12.182;2022-08-19T10:08:52;80322.00;;;21.60
12007;BMP180;6062;47.294;12.182;2022-08-19T10:11:19;80320.00;;;21.40
12007;BMP180;6062;47.294;12.182;2022-08-19T10:13:46;80324.00;;;21.20
12007;BMP180;6062;47.294;12.182;2022-08-19T10:16:19;80329.00;;;21.00
12007;BMP180;6062;47.294;12.182;2022-08-19T10:18:46;80323.00;;;20.90
12007;BMP180;6062;47.294;12.182;2022-08-19T10:21:18;80329.00;;;20.90
12007;BMP180;6062;47.294;12.182;2022-08-19T10:23:48;80328.00;;;21.00
12007;BMP180;6062;47.294;12.182;2022-08-19T10:26:19;80328.00;;;21.10
12007;BMP180;6062;47.294;12.182;2022-08-19T10:28:45;80327.00;;;20.90
12007;BMP180;6062;47.294;12.182;2022-08-19T10:31:16;80332.00;;;20.60
12007;BMP180;6062;47.294;12.182;2022-08-19T10:33:43;80330.00;;;20.50
12007;BMP180;6062;47.294;12.182;2022-08-19T10:36:17;80333.00;;;20.30
12007;BMP180;6062;47.294;12.182;2022-08-19T10:38:46;80333.00;;;20.10
12007;BMP180;6062;47.294;12.182;2022-08-19T10:41:21;80321.00;;;20.10
12007;BMP180;6062;47.294;12.182;2022-08-19T10:43:52;80324.00;;;20.00
12007;BMP180;6062;47.294;12.182;2022-08-19T10:46:21;80319.00;;;19.90
12007;BMP180;6062;47.294;12.182;2022-08-19T10:48:49;80318.00;;;19.90
12007;BMP180;6062;47.294;12.182;2022-08-19T10:51:16;80314.00;;;19.90
12007;BMP180;6062;47.294;12.182;2022-08-19T10:54:00;80307.00;;;19.90
12007;BMP180;6062;47.294;12.182;2022-08-19T10:56:28;80308.00;;;20.00
12007;BMP180;6062;47.294;12.182;2022-08-19T10:59:13;80315.00;;;20.10
12007;BMP180;6062;47.294;12.182;2022-08-19T11:01:41;80299.00;;;20.20
12007;BMP180;6062;47.294;12.182;2022-08-19T11:04:08;80297.00;;;20.30
12007;BMP180;6062;47.294;12.182;2022-08-19T11:06:37;80310.00;;;20.50
12007;BMP180;6062;47.294;12.182;2022-08-19T11:09:05;80301.00;;;20.70
12007;BMP180;6062;47.294;12.182;2022-08-19T11:11:31;80308.00;;;20.80
12007;BMP180;6062;47.294;12.182;2022-08-19T11:14:08;80292.00;;;20.90
12007;BMP180;6062;47.294;12.182;2022-08-19T11:16:33;80295.00;;;21.10
12007;BMP180;6062;47.294;12.182;2022-08-19T11:19:00;80298.00;;;21.20
12007;BMP180;6062;47.294;12.182;2022-08-19T11:21:30;80303.00;;;21.30
12007;BMP180;6062;47.294;12.182;2022-08-19T11:24:01;80308.00;;;21.40
12007;BMP180;6062;47.294;12.182;2022-08-19T11:26:29;80322.00;;;21.50
12007;BMP180;6062;47.294;12.182;2022-08-19T11:28:57;80306.00;;;21.50
12007;BMP180;6062;47.294;12.182;2022-08-19T11:31:28;80306.00;;;21.20
12007;BMP180;6062;47.294;12.182;2022-08-19T11:33:58;80311.00;;;20.80
12007;BMP180;6062;47.294;12.182;2022-08-19T11:36:25;80312.00;;;20.50
12007;BMP180;6062;47.294;12.182;2022-08-19T11:38:52;80309.00;;;20.20
12007;BMP180;6062;47.294;12.182;2022-08-19T11:41:21;80312.00;;;20.00
12007;BMP180;6062;47.294;12.182;2022-08-19T11:43:49;80318.00;;;19.80
12007;BMP180;6062;47.294;12.182;2022-08-19T11:46:16;80317.00;;;19.50
12007;BMP180;6062;47.294;12.182;2022-08-19T11:48:43;80314.00;;;19.40
12007;BMP180;6062;47.294;12.182;2022-08-19T11:51:16;80317.00;;;19.30
12007;BMP180;6062;47.294;12.182;2022-08-19T11:53:44;80303.00;;;19.20
12007;BMP180;6062;47.294;12.182;2022-08-19T11:56:11;80301.00;;;19.20
12007;BMP180;6062;47.294;12.182;2022-08-19T11:58:38;80310.00;;;19.30
12007;BMP180;6062;47.294;12.182;2022-08-19T12:01:10;80312.00;;;19.30
12007;BMP180;6062;47.294;12.182;2022-08-19T12:03:37;80311.00;;;19.30
12007;BMP180;6062;47.294;12.182;2022-08-19T12:06:09;80309.00;;;19.20
12007;BMP180;6062;47.294;12.182;2022-08-19T12:08:37;80303.00;;;19.20
12007;BMP180;6062;47.294;12.182;2022-08-19T12:11:04;80300.00;;;19.20
12007;BMP180;6062;47.294;12.182;2022-08-19T12:13:31;80293.00;;;19.40
12007;BMP180;6062;47.294;12.182;2022-08-19T12:15:57;80305.00;;;19.50
12007;BMP180;6062;47.294;12.182;2022-08-19T12:18:23;80309.00;;;19.50
12007;BMP180;6062;47.294;12.182;2022-08-19T12:20:52;80305.00;;;19.40
12007;BMP180;6062;47.294;12.182;2022-08-19T12:23:18;80306.00;;;19.30
12007;BMP180;6062;47.294;12.182;2022-08-19T12:25:47;80304.00;;;19.20
12007;BMP180;6062;47.294;12.182;2022-08-19T12:28:23;80307.00;;;19.10
12007;BMP180;6062;47.294;12.182;2022-08-19T12:30:50;80311.00;;;19.20
12007;BMP180;6062;47.294;12.182;2022-08-19T12:33:18;80305.00;;;19.20
12007;BMP180;6062;47.294;12.182;2022-08-19T12:35:45;80304.00;;;19.20
12007;BMP180;6062;47.294;12.182;2022-08-19T12:38:13;80306.00;;;19.10
12007;BMP180;6062;47.294;12.182;2022-08-19T12:40:39;80301.00;;;19.00
12007;BMP180;6062;47.294;12.182;2022-08-19T12:43:08;80305.00;;;19.00
12007;BMP180;6062;47.294;12.182;2022-08-19T12:45:34;80304.00;;;18.90
12007;BMP180;6062;47.294;12.182;2022-08-19T12:48:00;80303.00;;;18.80
12007;BMP180;6062;47.294;12.182;2022-08-19T12:50:26;80308.00;;;18.80
12007;BMP180;6062;47.294;12.182;2022-08-19T12:52:52;80306.00;;;18.80
12007;BMP180;6062;47.294;12.182;2022-08-19T12:55:18;80307.00;;;18.70
12007;BMP180;6062;47.294;12.182;2022-08-19T12:57:45;80316.00;;;18.70
12007;BMP180;6062;47.294;12.182;2022-08-19T13:00:18;80304.00;;;18.60
12007;BMP180;6062;47.294;12.182;2022-08-19T13:02:50;80311.00;;;18.50
12007;BMP180;6062;47.294;12.182;2022-08-19T13:05:29;80312.00;;;18.50
12007;BMP180;6062;47.294;12.182;2022-08-19T13:07:58;80319.00;;;18.30
12007;BMP180;6062;47.294;12.182;2022-08-19T13:10:30;80321.00;;;18.20
12007;BMP180;6062;47.294;12.182;2022-08-19T13:12:57;80323.00;;;18.10
12007;BMP180;6062;47.294;12.182;2022-08-19T13:15:25;80328.00;;;18.00
12007;BMP180;6062;47.294;12.182;2022-08-19T13:17:53;80354.00;;;17.80
12007;BMP180;6062;47.294;12.182;2022-08-19T13:20:20;80364.00;;;17.70
12007;BMP180;6062;47.294;12.182;2022-08-19T13:22:47;80352.00;;;17.40
12007;BMP180;6062;47.294;12.182;2022-08-19T13:25:15;80365.00;;;17.10
12007;BMP180;6062;47.294;12.182;2022-08-19T13:27:43;80359.00;;;16.80
12007;BMP180;6062;47.294;12.182;2022-08-19T13:30:13;80350.00;;;16.60
12007;BMP180;6062;47.294;12.182;2022-08-19T13:32:57;80350.00;;;16.30
12007;BMP180;6062;47.294;12.182;2022-08-19T13:35:51;80351.00;;;16.20
12007;BMP180;6062;47.294;12.182;2022-08-19T13:38:23;80361.00;;;16.10
12007;BMP180;6062;47.294;12.182;2022-08-19T13:40:51;80364.00;;;16.10
12007;BMP180;6062;47.294;12.182;2022-08-19T13:43:19;80365.00;;;16.00
12007;BMP180;6062;47.294;12.182;2022-08-19T13:45:48;80370.00;;;16.00
12007;BMP180;6062;47.294;12.182;2022-08-19T13:48:14;80366.00;;;16.00
12007;BMP180;6062;47.294;12.182;2022-08-19T13:50:44;80382.00;;;15.90
12007;BMP180;6062;47.294;12.182;2022-08-19T13:53:11;80386.00;;;15.90
12007;BMP180;6062;47.294;12.182;2022-08-19T13:55:40;80377.00;;;15.90
12007;BMP180;6062;47.294;12.182;2022-08-19T13:58:06;80373.00;;;15.80
12007;BMP180;6062;47.294;12.182;2022-08-19T14:00:36;80374.00;;;15.80
12007;BMP180;6062;47.294;12.182;2022-08-19T14:03:03;80368.00;;;15.80
12007;BMP180;6062;47.294;12.182;2022-08-19T14:05:30;80363.00;;;15.80
12007;BMP180;6062;47.294;12.182;2022-08-19T14:07:56;80367.00;;;15.80
12007;BMP180;6062;47.294;12.182;2022-08-19T14:10:23;80352.00;;;15.80
12007;BMP180;6062;47.294;12.182;2022-08-19T14:12:54;80348.00;;;15.90
12007;BMP180;6062;47.294;12.182;2022-08-19T14:15:21;80350.00;;;15.90
12007;BMP180;6062;47.294;12.182;2022-08-19T14:17:48;80339.00;;;16.00
12007;BMP180;6062;47.294;12.182;2022-08-19T14:20:15;80337.00;;;16.00
12007;BMP180;6062;47.294;12.182;2022-08-19T14:22:42;80335.00;;;16.00
12007;BMP180;6062;47.294;12.182;2022-08-19T14:25:15;80335.00;;;16.10
12007;BMP180;6062;47.294;12.182;2022-08-19T14:27:41;80336.00;;;16.10
12007;BMP180;6062;47.294;12.182;2022-08-19T14:30:12;80334.00;;;16.10
12007;BMP180;6062;47.294;12.182;2022-08-19T14:32:40;80343.00;;;16.20
12007;BMP180;6062;47.294;12.182;2022-08-19T14:35:06;80345.00;;;16.20
12007;BMP180;6062;47.294;12.182;2022-08-19T14:37:33;80345.00;;;16.20
12007;BMP180;6062;47.294;12.182;2022-08-19T14:40:00;80336.00;;;16.30
12007;BMP180;6062;47.294;12.182;2022-08-19T14:42:25;80342.00;;;16.30